Tiempo atmosférico en la estación meteorológica de Arucas, Las Palmas (86 m.)



Fecha
DESCASC
Temp. máxima en grados centígrados (hora)
DESCASC
Temp. mínima en grados centígrados (hora)
DESCASC
Temp. media en grados centígrados
DESCASC
Racha de viento máxima en m/sg (hora)
DESCASC
Velocidad máxima media en intervalos de 10 minutos(hora)
DESCASC
Precipitaciones diarias en mm
DESCASC
Precipitaciones de 00:00 a 06:00 en mm
DESCASC
Precipitaciones de 06:00 a 12:00 en mm
DESCASC
Precipitaciones de 12:00 a 18:00 en mm
DESCASC
Precipitaciones de 18:00 a 24:00 en mm
DESCASC
13-10-2019 24.9 (13:10) 18.4 (23:30) 21.6 4.17 (13:00) 2.5 (12:20) 0 0 0 0 0
12-10-2019 25.1 (14:10) 18.8 (23:59) 21.9 4.17 (12:40) 2.78 (12:40) 0 0 0 0 0
11-10-2019 25 (15:00) 18.8 (02:40) 21.9 5 (09:40) 3.06 (05:00) 0 0 0 0 0
10-10-2019 24.7 (12:50) 19.5 (00:00) 22.1 4.72 (11:00) 2.22 (11:00) 0 0 0 0 0
09-10-2019 24.5 (16:30) 21 (00:00) 22.8 4.72 (08:30) 2.78 (17:20) 0 0 0 0 0
08-10-2019 24.7 (15:30) 21.2 (00:00) 23 4.17 (14:00) 2.22 (13:50) 0 0 0 0 0
07-10-2019 25.1 (14:00) 21.3 (00:00) 23.2 4.72 (11:10) 2.5 (11:40) 0 0 0 0 0
06-10-2019 25.2 (14:40) 21.2 (00:00) 23.2 6.11 (14:50) 2.78 (14:50) 0 0 0 0 0
05-10-2019 24.8 (14:40) 21.7 (00:00) 23.3 5.83 (17:30) 3.33 (14:50) 0 0 0 0 0
04-10-2019 24.8 (15:20) 21.4 (00:00) 23.1 5.83 (16:00) 2.78 (18:10) 0 0 0 0 0
03-10-2019 24.8 (11:50) 19.2 (00:00) 22 4.72 (04:20) 2.78 (04:20) 0 0 0 0 0
02-10-2019 25.8 (14:00) 19.9 (00:00) 22.8 6.67 (13:30) 4.72 (14:10) 0 0 0 0 0
01-10-2019 25.2 (14:20) 18.9 (00:00) 22.1 6.11 (17:00) 3.61 (18:40) 0 0 0 0 0
30-09-2019 25.2 (15:10) 20 (00:00) 22.6 4.72 (19:20) 3.06 (18:10) 0 0 0 0 0
29-09-2019 24.9 (15:20) 21.4 (00:00) 23.1 4.17 (12:40) 2.78 (14:00) 0 0 0 0 0
28-09-2019 25.2 (14:50) 19.9 (00:00) 22.6 5 (12:50) 3.06 (12:30) 0 0 0 0 0
27-09-2019 24.9 (12:20) 21 (00:00) 22.9 4.44 (17:40) 2.78 (13:30) 0 0 0 0 0
26-09-2019 25.1 (16:00) 21.4 (00:00) 23.3 5.83 (14:00) 2.78 (17:00) 0 0 0 0 0
25-09-2019 25 (14:50) 20.8 (00:00) 22.9 4.17 (06:00) 2.5 (06:00) 0 0 0 0 0
24-09-2019 25.5 (14:30) 20.5 (00:00) 23 5.83 (09:10) 3.89 (09:10) 0 0 0 0 0
23-09-2019 25.1 (16:10) 20.7 (00:00) 22.9 6.11 (10:00) 2.78 (06:00) 0 0 0 0 0
22-09-2019 26.2 (12:40) 20 (00:00) 23.1 6.11 (20:50) 3.61 (22:30) 0.4 0 0 0 0.4
21-09-2019 25.5 (16:00) 18.7 (00:00) 22.1 5.28 (13:00) 2.78 (13:00) 0 0 0 0 0
20-09-2019 24.8 (14:50) 20.5 (00:00) 22.6 5 (17:30) 2.5 (11:40) 0 0 0 0 0
19-09-2019 24.9 (14:00) 20.6 (00:00) 22.8 4.17 (09:20) 2.78 (14:00) 0 0 0 0 0
18-09-2019 -- (--) -- (--) -- -- (--) -- (--) -- 0 0 -- 0
17-09-2019 24.9 (14:30) 20.9 (00:00) 22.9 5.28 (14:00) 3.06 (14:00) 0 0 0 0 0
16-09-2019 24.4 (14:40) 21.4 (00:00) 22.9 9.17 (14:50) 5 (14:50) 1.6 0 0.2 0.8 0.6

Gráficas

Temp. máximas Temp. mínimas Temp. medias Precipitaciones Rachas de viento máximas Velocidades máximas media en intervalos de 10 minutos

Datos horarios

Fecha y hora oficial Temperatura (ºC) Velocidad del viento (km/h) Dirección del viento Racha (km/h) Dirección de racha Precipitación (mm) Presión (hPa) Tendencia (hPa) Humedad (%)
2019-10-15 23:00:00 21.2 10 Este 18 Este 0 -- -- 76
2019-10-15 22:00:00 21.2 9 Este 14 Nordeste 0 -- -- 74
2019-10-15 21:00:00 21.2 8 Este 15 Este 0 -- -- 74
2019-10-15 20:00:00 21.2 8 Este 17 Este 0 -- -- 73
2019-10-15 19:00:00 21.8 9 Nordeste 17 Este 0 -- -- 68
2019-10-15 18:00:00 21.9 7 Nordeste 14 Nordeste 0 -- -- 64
2019-10-15 17:00:00 22.5 7 Nordeste 14 Nordeste 0 -- -- 64
2019-10-15 16:00:00 22.3 8 Nordeste 15 Nordeste 0 -- -- 66
2019-10-15 15:00:00 22.1 10 Nordeste 21 Este 0 -- -- 69
2019-10-15 14:00:00 22 9 Este 20 Este 0 -- -- 73
2019-10-15 13:00:00 22.4 11 Este 21 Este 0 -- -- 72
2019-10-15 12:00:00 22.2 9 Nordeste 16 Nordeste 0 -- -- 73
2019-10-15 11:00:00 23.1 8 Nordeste 15 Nordeste 0 -- -- 67
2019-10-15 10:00:00 22.4 7 Este 15 Este 0 -- -- 69
2019-10-15 09:00:00 21.9 7 Este 14 Este 0 -- -- 71
2019-10-15 08:00:00 20.9 8 Este 18 Nordeste 0 -- -- 75
2019-10-15 07:00:00 20.9 8 Este 18 Nordeste 0 -- -- 76
2019-10-15 06:00:00 20.8 8 Este 19 Este 0 -- -- 78
2019-10-15 05:00:00 20.6 8 Nordeste 17 Nordeste 0 -- -- 80
2019-10-15 04:00:00 20.3 5 Nordeste 12 Nordeste 0 -- -- 80
2019-10-15 03:00:00 20.4 6 Nordeste 15 Nordeste 0 -- -- 80
2019-10-15 02:00:00 20.5 7 Nordeste 13 Nordeste 0 -- -- 80
2019-10-15 01:00:00 20.6 5 Nordeste 13 Este 0 -- -- 77
2019-10-15 00:00:00 20.6 6 Nordeste 13 Nordeste 0 -- -- 78
2019-10-14 23:00:00 20.4 3 Este 9 Este 0 -- -- 78
2019-10-14 22:00:00 20.7 4 Nordeste 9 Nordeste 0 -- -- 79
2019-10-14 21:00:00 20.8 4 Nordeste 10 Nordeste 0 -- -- 77
2019-10-14 20:00:00 21.2 4 Nordeste 11 Nordeste 0 -- -- 77
2019-10-14 19:00:00 21.8 5 Norte 12 Norte 0 -- -- 75
2019-10-14 18:00:00 23.2 6 Norte 15 Nordeste 0 -- -- 69
2019-10-14 17:00:00 23 7 Norte 14 Norte 0 -- -- 72
2019-10-14 16:00:00 23.5 8 Nordeste 14 Nordeste 0 -- -- 68
2019-10-14 15:00:00 23.3 8 Norte 15 Norte 0 -- -- 70
2019-10-14 14:00:00 23.8 8 Norte 14 Nordeste 0 -- -- 69
2019-10-14 13:00:00 23.3 6 Nordeste 15 Nordeste 0 -- -- 69
2019-10-14 12:00:00 22.3 7 Nordeste 15 Nordeste 0 -- -- 75
2019-10-14 11:00:00 22.3 7 Nordeste 14 Norte 0 -- -- 76
2019-10-14 10:00:00 21.8 6 Nordeste 15 Nordeste 0 -- -- 77
2019-10-14 09:00:00 21.3 6 Nordeste 15 Norte 0 -- -- 80
2019-10-14 08:00:00 20.6 5 Nordeste 17 Norte 0 -- -- 85
2019-10-14 07:00:00 20.5 6 Norte 15 Norte 0 -- -- 86
2019-10-14 06:00:00 19.9 4 Sur 8 Sudeste 0.6 -- -- 90
2019-10-14 05:00:00 20 5 Sudoeste 9 Sudoeste 0 -- -- 84
2019-10-14 04:00:00 19.8 6 Sudoeste 9 Sudoeste 0 -- -- 82
2019-10-14 03:00:00 19.1 5 Oeste 8 Sudoeste 0 -- -- 82
2019-10-14 02:00:00 18.7 5 Sudoeste 7 Sudoeste 0 -- -- 83
2019-10-14 01:00:00 19.1 3 Sudoeste 9 Sudoeste 0 -- -- 81
2019-10-14 00:00:00 18.5 4 Sudoeste 6 Sudoeste 0 -- -- 80
2019-10-13 23:00:00 18.6 4 Sudoeste 6 Sudoeste 0 -- -- 78
2019-10-13 22:00:00 18.7 4 Sur 5 Sur 0 -- -- 78
2019-10-13 21:00:00 19.2 3 Sur 4 Sur 0 -- -- 77
2019-10-13 20:00:00 20.6 0 Calma 5 Norte 0 -- -- 71
2019-10-13 19:00:00 22.6 3 Norte 8 Norte 0 -- -- 65
2019-10-13 18:00:00 23.7 4 Norte 8 Norte 0 -- -- 61
2019-10-13 17:00:00 23.2 6 Norte 9 Norte 0 -- -- 62
2019-10-13 16:00:00 23.7 6 Norte 12 Noroeste 0 -- -- 61
2019-10-13 15:00:00 23.4 6 Norte 12 Norte 0 -- -- 62
2019-10-13 14:00:00 24.6 7 Norte 14 Noroeste 0 -- -- 59
2019-10-13 13:00:00 24.8 8 Noroeste 15 Norte 0 -- -- 59
2019-10-13 12:00:00 24.3 7 Noroeste 13 Noroeste 0 -- -- 59
2019-10-13 11:00:00 23.5 6 Norte 15 Norte 0 -- -- 62
2019-10-13 10:00:00 23 4 Noroeste 9 Sudoeste 0 -- -- 63
2019-10-13 09:00:00 21.2 4 Sudoeste 8 Sudoeste 0 -- -- 68
2019-10-13 08:00:00 19.9 4 Sur 6 Sur 0 -- -- 72
2019-10-13 07:00:00 19.9 0 Calma 9 Sudoeste 0 -- -- 73
2019-10-13 06:00:00 20.4 5 Sudoeste 8 Sudoeste 0 -- -- 72
2019-10-13 05:00:00 20.4 4 Sur 8 Sur 0 -- -- 76
2019-10-13 04:00:00 20.4 4 Sur 8 Sudeste 0 -- -- 77
2019-10-13 03:00:00 20.4 3 Sudeste 8 Sur 0 -- -- 78
2019-10-13 02:00:00 20.2 6 Sudeste 10 Sur 0 -- -- 81
2019-10-13 01:00:00 19.7 4 Sudeste 6 Sudeste 0 -- -- 85
2019-10-13 00:00:00 18.8 0 Calma 3 Sudeste 0 -- -- 85
2019-10-12 23:00:00 20 0 Calma 8 Norte 0 -- -- 82
2019-10-12 22:00:00 21.3 5 Norte 9 Norte 0 -- -- 80
2019-10-12 21:00:00 21.2 3 Noroeste 10 Norte 0 -- -- 80
2019-10-12 20:00:00 21.6 6 Norte 13 Norte 0 -- -- 78
2019-10-12 19:00:00 22.3 4 Norte 14 Norte 0 -- -- 74
2019-10-12 18:00:00 22.9 7 Norte 14 Norte 0 -- -- 75
2019-10-12 17:00:00 23.8 6 Noroeste 13 Noroeste 0 -- -- 68
2019-10-12 16:00:00 24.1 8 Norte 14 Nordeste 0 -- -- 66
2019-10-12 15:00:00 24.5 8 Nordeste 15 Nordeste 0 -- -- 65
2019-10-12 14:00:00 24.5 7 Nordeste 13 Nordeste 0 -- -- 66
2019-10-12 13:00:00 24.7 7 Nordeste 15 Nordeste 0 -- -- 62
2019-10-12 12:00:00 22.7 7 Nordeste 14 Este 0 -- -- 70
2019-10-12 11:00:00 23.1 8 Nordeste 13 Este 0 -- -- 72
2019-10-12 10:00:00 22.3 5 Nordeste 10 Nordeste 0 -- -- 78
2019-10-12 09:00:00 21.3 3 Nordeste 6 Norte 0 -- -- 80
2019-10-12 08:00:00 20.6 0 Calma 4 Sudoeste 0 -- -- 83
2019-10-12 07:00:00 20.5 2 Noroeste 6 Oeste 0 -- -- 82
2019-10-12 06:00:00 20.3 3 Oeste 8 Oeste 0 -- -- 83
2019-10-12 05:00:00 20.9 4 Noroeste 12 Norte 0 -- -- 81
2019-10-12 04:00:00 21.1 4 Norte 10 Nordeste 0 -- -- 81
2019-10-12 03:00:00 21 6 Norte 12 Norte 0 -- -- 82
2019-10-12 02:00:00 20.1 5 Sudoeste 8 Oeste 0 -- -- 85
2019-10-12 01:00:00 20.1 3 Oeste 9 Oeste 0 -- -- 83
2019-10-12 00:00:00 21.2 5 Noroeste 9 Noroeste 0 -- -- 80
2019-10-11 23:00:00 21.2 5 Noroeste 13 Noroeste 0 -- -- 81
2019-10-11 22:00:00 21.4 4 Noroeste 10 Norte 0 -- -- 79
2019-10-11 21:00:00 21.7 4 Noroeste 10 Oeste 0 -- -- 80
2019-10-11 20:00:00 21.9 6 Noroeste 11 Noroeste 0 -- -- 78
2019-10-11 19:00:00 22.3 8 Noroeste 15 Noroeste 0 -- -- 75
2019-10-11 18:00:00 23.5 8 Noroeste 15 Noroeste 0 -- -- 73
2019-10-11 17:00:00 24 8 Noroeste 16 Noroeste 0 -- -- 72
2019-10-11 16:00:00 24.6 6 Norte 14 Norte 0 -- -- 68
2019-10-11 15:00:00 25 7 Norte 15 Norte 0 -- -- 69
2019-10-11 14:00:00 24.9 6 Noroeste 14 Noroeste 0 -- -- 69
2019-10-11 13:00:00 24.3 4 Nordeste 10 Norte 0 -- -- 70
2019-10-11 12:00:00 24.2 5 Nordeste 9 Nordeste 0 -- -- 68
2019-10-11 11:00:00 24 5 Norte 13 Norte 0 -- -- 67
2019-10-11 10:00:00 22.8 3 Oeste 18 Noroeste 0 -- -- 73
2019-10-11 09:00:00 20.9 4 Sudoeste 11 Sudoeste 0 -- -- 78
2019-10-11 08:00:00 19.4 6 Sudoeste 14 Sudoeste 0 -- -- 80
2019-10-11 07:00:00 19 7 Sudoeste 11 Sudoeste 0 -- -- 80
2019-10-11 06:00:00 19.3 7 Sudoeste 15 Sudoeste 0 -- -- 78
2019-10-11 05:00:00 19.6 11 Sudoeste 15 Sudoeste 0 -- -- 76
2019-10-11 04:00:00 19.1 8 Sudoeste 12 Sudoeste 0 -- -- 79
2019-10-11 03:00:00 18.8 6 Sudoeste 11 Sudoeste 0 -- -- 80
2019-10-11 02:00:00 19.2 5 Sudoeste 8 Sudoeste 0 -- -- 89
2019-10-11 01:00:00 19.2 4 Sudoeste 6 Sudoeste 0 -- -- 88
2019-10-11 00:00:00 20.6 0 Calma 5 Nordeste 0 -- -- 85
2019-10-10 23:00:00 21.4 3 Nordeste 8 Norte 0 -- -- 82
2019-10-10 22:00:00 21.7 4 Norte 10 Norte 0 -- -- 82
2019-10-10 21:00:00 21.8 4 Norte 11 Norte 0 -- -- 82
2019-10-10 20:00:00 22.1 4 Norte 11 Norte 0 -- -- 81
2019-10-10 19:00:00 22.6 4 Norte 12 Norte 0 -- -- 80
2019-10-10 18:00:00 23.4 6 Norte 13 Norte 0 -- -- 77
2019-10-10 17:00:00 23.9 8 Norte 13 Norte 0 -- -- 75
2019-10-10 16:00:00 24.2 6 Norte 12 Nordeste 0 -- -- 72
2019-10-10 15:00:00 24.3 6 Norte 12 Norte 0 -- -- 73
2019-10-10 14:00:00 24.2 7 Norte 12 Nordeste 0 -- -- 75
2019-10-10 13:00:00 24.5 7 Nordeste 13 Nordeste 0 -- -- 72
2019-10-10 12:00:00 24 6 Norte 13 Norte 0 -- -- 76
2019-10-10 11:00:00 23.7 8 Norte 17 Norte 0 -- -- 79
2019-10-10 10:00:00 22.9 5 Norte 9 Norte 0 -- -- 82
2019-10-10 09:00:00 21 2 Sudoeste 6 Sudoeste 0 -- -- 85
2019-10-10 08:00:00 19.9 5 Sudoeste 9 Sudoeste 0 -- -- 85
2019-10-10 07:00:00 20.2 4 Sudoeste 12 Sudoeste 0 -- -- 82
2019-10-10 06:00:00 20.1 5 Sudoeste 8 Sudoeste 0 -- -- 82
2019-10-10 05:00:00 19.6 2 Oeste 6 Sudeste 0 -- -- 82
2019-10-10 04:00:00 20 4 Sur 9 Sur 0 -- -- 83
2019-10-10 03:00:00 20.4 0 Calma 5 Sur 0 -- -- 80
2019-10-10 02:00:00 19.7 3 Sur 5 Sur 0 -- -- 81
2019-10-10 01:00:00 20.9 3 Sur 11 Norte 0 -- -- 80
2019-10-10 00:00:00 21.8 6 Norte 14 Norte 0 -- -- 77
2019-10-09 23:00:00 21.8 4 Noroeste 9 Oeste 0 -- -- 77
2019-10-09 22:00:00 21.7 3 Oeste 6 Oeste 0 -- -- 75
2019-10-09 21:00:00 22.1 3 Noroeste 6 Oeste 0 -- -- 73
2019-10-09 20:00:00 22.2 3 Noroeste 14 Norte 0 -- -- 71
2019-10-09 19:00:00 22.6 6 Norte 12 Oeste 0 -- -- 72
2019-10-09 18:00:00 24.1 4 Noroeste 16 Norte 0 -- -- 64
2019-10-09 17:00:00 23.9 8 Norte 14 Norte 0 -- -- 67
2019-10-09 16:00:00 24.3 5 Norte 15 Norte 0 -- -- 65
2019-10-09 15:00:00 24 4 Norte 12 Norte 0 -- -- 66
2019-10-09 14:00:00 24 8 Norte 14 Norte 0 -- -- 67
2019-10-09 13:00:00 23.5 8 Nordeste 17 Nordeste 0 -- -- 69
2019-10-09 12:00:00 23.4 7 Norte 15 Norte 0 -- -- 67
2019-10-09 11:00:00 22.3 3 Norte 12 Norte 0 -- -- 72
2019-10-09 10:00:00 22 8 Norte 15 Nordeste 0 -- -- 73
2019-10-09 09:00:00 21.4 4 Norte 17 Norte 0 -- -- 75
2019-10-09 08:00:00 21.1 4 Norte 11 Norte 0 -- -- 76
2019-10-09 07:00:00 21 5 Norte 14 Norte 0 -- -- 73
2019-10-09 06:00:00 21.1 5 Norte 14 Norte 0 -- -- 75
2019-10-09 05:00:00 21.1 2 Norte 13 Norte 0 -- -- 77
2019-10-09 04:00:00 21.1 7 Norte 15 Norte 0 -- -- 78
2019-10-09 03:00:00 21.2 7 Norte 15 Norte 0 -- -- 77
2019-10-09 02:00:00 21.2 7 Norte 14 Norte 0 -- -- 77
2019-10-09 01:00:00 21.1 3 Noroeste 10 Norte 0 -- -- 80
2019-10-09 00:00:00 21.2 4 Noroeste 12 Norte 0 -- -- 80
2019-10-08 23:00:00 21.3 3 Norte 10 Norte 0 -- -- 80
2019-10-08 22:00:00 21.5 4 Noroeste 10 Oeste 0 -- -- 80
2019-10-08 21:00:00 21.3 2 Noroeste 11 Noroeste 0 -- -- 81
2019-10-08 20:00:00 21.6 3 Norte 10 Norte 0 -- -- 80
2019-10-08 19:00:00 22.4 6 Norte 13 Norte 0 -- -- 77
2019-10-08 18:00:00 23.4 4 Norte 13 Norte 0 -- -- 73
2019-10-08 17:00:00 23.7 7 Norte 13 Norte 0 -- -- 72
2019-10-08 16:00:00 24.4 8 Nordeste 15 Nordeste 0 -- -- 69
2019-10-08 15:00:00 24.1 6 Nordeste 13 Nordeste 0 -- -- 70
2019-10-08 14:00:00 23.7 7 Nordeste 15 Nordeste 0 -- -- 71
2019-10-08 13:00:00 23.3 6 Nordeste 13 Norte 0 -- -- 74
2019-10-08 12:00:00 23 6 Norte 12 Norte 0 -- -- 76
2019-10-08 11:00:00 22.6 7 Norte 14 Norte 0 -- -- 75
2019-10-08 10:00:00 21.9 5 Norte 13 Norte 0 -- -- 79
2019-10-08 09:00:00 21.6 5 Norte 13 Norte 0 -- -- 81
2019-10-08 08:00:00 21.5 4 Norte 10 Norte 0 -- -- 81
2019-10-08 07:00:00 21.4 5 Norte 12 Norte 0 -- -- 80
2019-10-08 06:00:00 21.3 5 Noroeste 13 Norte 0 -- -- 80
2019-10-08 05:00:00 21.6 5 Nordeste 9 Nordeste 0 -- -- 79
2019-10-08 04:00:00 21.7 3 Norte 10 Norte 0 -- -- 80
2019-10-08 03:00:00 21.9 0 Calma 9 Nordeste 0 -- -- 79
2019-10-08 02:00:00 21.9 4 Oeste 8 Sudoeste 0 -- -- 80
2019-10-08 01:00:00 21.8 3 Oeste 8 Nordeste 0 -- -- 80
2019-10-08 00:00:00 21.8 3 Norte 7 Norte 0 -- -- 81
2019-10-07 23:00:00 21.8 3 Norte 13 Norte 0 -- -- 78
2019-10-07 22:00:00 22 6 Norte 13 Norte 0 -- -- 79
2019-10-07 21:00:00 22 6 Norte 15 Norte 0 -- -- 79
2019-10-07 20:00:00 22.2 7 Norte 13 Norte 0 -- -- 80
2019-10-07 19:00:00 22.6 6 Norte 13 Norte 0 -- -- 78
2019-10-07 18:00:00 23.2 7 Norte 14 Norte 0 -- -- 76
2019-10-07 17:00:00 23.6 8 Norte 14 Norte 0 -- -- 75
2019-10-07 16:00:00 24.1 7 Norte 16 Norte 0 -- -- 73
2019-10-07 15:00:00 25 8 Nordeste 15 Nordeste 0 -- -- 71
2019-10-07 14:00:00 25.1 8 Nordeste 16 Nordeste 0 -- -- 67
2019-10-07 13:00:00 24.8 8 Nordeste 14 Nordeste 0 -- -- 68
2019-10-07 12:00:00 24.4 8 Nordeste 17 Nordeste 0 -- -- 69
2019-10-07 11:00:00 22.8 7 Nordeste 14 Este 0 -- -- 75
2019-10-07 10:00:00 22.3 7 Este 15 Nordeste 0 -- -- 74
2019-10-07 09:00:00 21.7 5 Nordeste 15 Nordeste 0 -- -- 77
2019-10-07 08:00:00 21.5 6 Nordeste 15 Norte 0 -- -- 79
2019-10-07 07:00:00 21.5 5 Nordeste 9 Nordeste 0 -- -- 80
2019-10-07 06:00:00 21.5 4 Nordeste 10 Nordeste 0 -- -- 80
2019-10-07 05:00:00 21.4 4 Nordeste 13 Norte 0 -- -- 80
2019-10-07 04:00:00 21.4 4 Sudeste 10 Este 0 -- -- 79
2019-10-07 03:00:00 21.4 5 Nordeste 13 Nordeste 0 -- -- 78
2019-10-07 02:00:00 21.6 2 Norte 12 Nordeste 0 -- -- 77
2019-10-07 01:00:00 21.7 5 Nordeste 12 Nordeste 0 -- -- 77
2019-10-07 00:00:00 21.8 5 Norte 10 Norte 0 -- -- 77
2019-10-06 23:00:00 21.8 5 Nordeste 16 Norte 0 -- -- 76
2019-10-06 22:00:00 22 5 Nordeste 13 Nordeste 0 -- -- 79
2019-10-06 21:00:00 22 3 Nordeste 13 Nordeste 0 -- -- 77
2019-10-06 20:00:00 22.2 4 Nordeste 15 Nordeste 0 -- -- 78
2019-10-06 19:00:00 22.7 6 Nordeste 14 Nordeste 0 -- -- 78
2019-10-06 18:00:00 23.2 6 Nordeste 13 Nordeste 0 -- -- 74
2019-10-06 17:00:00 23.7 6 Norte 18 Norte 0 -- -- 74
2019-10-06 16:00:00 24.6 9 Nordeste 21 Nordeste 0 -- -- 70
2019-10-06 15:00:00 24.5 10 Nordeste 22 Norte 0 -- -- 71
2019-10-06 14:00:00 24.1 9 Nordeste 20 Norte 0 -- -- 70
2019-10-06 13:00:00 24.2 8 Nordeste 17 Nordeste 0 -- -- 71
2019-10-06 12:00:00 23.7 8 Nordeste 15 Norte 0 -- -- 71
2019-10-06 11:00:00 23 5 Nordeste 15 Norte 0 -- -- 74
2019-10-06 10:00:00 22.2 5 Nordeste 14 Norte 0 -- -- 79
2019-10-06 09:00:00 21.6 5 Nordeste 14 Nordeste 0 -- -- 81
2019-10-06 08:00:00 21.4 3 Nordeste 16 Nordeste 0 -- -- 82
2019-10-06 07:00:00 21.3 5 Norte 14 Norte 0 -- -- 86
2019-10-06 06:00:00 21.4 4 Norte 13 Norte 0 -- -- 87
2019-10-06 05:00:00 21.3 5 Nordeste 15 Norte 0 -- -- 86
2019-10-06 04:00:00 21.4 0 Calma 13 Norte 0 -- -- 85
2019-10-06 03:00:00 21.5 6 Nordeste 16 Norte 0 -- -- 84
2019-10-06 02:00:00 21.9 2 Nordeste 11 Norte 0 -- -- 81
2019-10-06 01:00:00 21.8 3 Norte 10 Norte 0 -- -- 81
2019-10-06 00:00:00 21.9 4 Norte 15 Nordeste 0 -- -- 80
2019-10-05 23:00:00 21.9 3 Norte 10 Norte 0 -- -- 79
2019-10-05 22:00:00 22 5 Norte 15 Norte 0 -- -- 81
2019-10-05 21:00:00 22.2 4 Norte 15 Norte 0 -- -- 78
2019-10-05 20:00:00 22.4 5 Norte 15 Norte 0 -- -- 77
2019-10-05 19:00:00 23 8 Norte 15 Norte 0 -- -- 76
2019-10-05 18:00:00 23.4 3 Norte 21 Norte 0 -- -- 80
2019-10-05 17:00:00 24 4 Norte 13 Nordeste 0 -- -- 78
2019-10-05 16:00:00 24.6 7 Norte 17 Norte 0 -- -- 74
2019-10-05 15:00:00 24.1 8 Norte 20 Norte 0 -- -- 78
2019-10-05 14:00:00 24.4 6 Norte 13 Norte 0 -- -- 76
2019-10-05 13:00:00 24.2 6 Nordeste 12 Norte 0 -- -- 76
2019-10-05 12:00:00 23.8 4 Nordeste 10 Nordeste 0 -- -- 77
2019-10-05 11:00:00 23.3 4 Nordeste 14 Norte 0 -- -- 79
2019-10-05 10:00:00 22.7 5 Nordeste 11 Nordeste 0 -- -- 83
2019-10-05 09:00:00 22.3 3 Nordeste 9 Nordeste 0 -- -- 85
2019-10-05 08:00:00 22.2 3 Noroeste 9 Norte 0 -- -- 85
2019-10-05 07:00:00 22.1 3 Noroeste 10 Nordeste 0 -- -- 82
2019-10-05 06:00:00 22 2 Este 15 Norte 0 -- -- 83
2019-10-05 05:00:00 21.9 6 Nordeste 14 Nordeste 0 -- -- 83
2019-10-05 04:00:00 21.9 4 Norte 15 Norte 0 -- -- 81
2019-10-05 03:00:00 21.9 5 Norte 14 Nordeste 0 -- -- 81
2019-10-05 02:00:00 21.8 5 Norte 12 Norte 0 -- -- 81
2019-10-05 01:00:00 21.9 4 Norte 14 Norte 0 -- -- 83
2019-10-05 00:00:00 21.9 4 Norte 16 Norte 0 -- -- 82
2019-10-04 23:00:00 21.9 4 Noroeste 12 Noroeste 0 -- -- 80
2019-10-04 22:00:00 22 6 Noroeste 18 Norte 0 -- -- 80
2019-10-04 21:00:00 22.1 6 Noroeste 13 Norte 0 -- -- 80
2019-10-04 20:00:00 22.3 7 Noroeste 14 Norte 0 -- -- 79
2019-10-04 19:00:00 22.8 8 Norte 19 Norte 0 -- -- 77
2019-10-04 18:00:00 23.2 10 Norte 18 Norte 0 -- -- 78
2019-10-04 17:00:00 23.5 7 Norte 17 Norte 0 -- -- 76
2019-10-04 16:00:00 24.1 10 Norte 21 Norte 0 -- -- 72
2019-10-04 15:00:00 24.6 8 Norte 19 Norte 0 -- -- 74
2019-10-04 14:00:00 24.6 8 Norte 14 Norte 0 -- -- 74
2019-10-04 13:00:00 24.7 8 Norte 14 Noroeste 0 -- -- 75
2019-10-04 12:00:00 24.1 6 Noroeste 15 Norte 0 -- -- 73
2019-10-04 11:00:00 23.4 7 Noroeste 14 Noroeste 0 -- -- 79
2019-10-04 10:00:00 22.4 6 Noroeste 14 Noroeste 0 -- -- 80
2019-10-04 09:00:00 21.9 5 Norte 16 Oeste 0 -- -- 85
2019-10-04 08:00:00 21.6 8 Noroeste 17 Noroeste 0 -- -- 85
2019-10-04 07:00:00 21.5 9 Noroeste 15 Oeste 0 -- -- 86
2019-10-04 06:00:00 21.5 5 Noroeste 14 Noroeste 0 -- -- 86
2019-10-04 05:00:00 21.5 6 Noroeste 16 Noroeste 0 -- -- 86
2019-10-04 04:00:00 21.6 4 Norte 12 Norte 0 -- -- 86
2019-10-04 03:00:00 21.7 4 Noroeste 13 Oeste 0 -- -- 87
2019-10-04 02:00:00 21.7 5 Noroeste 13 Oeste 0 -- -- 86
2019-10-04 01:00:00 21.7 7 Oeste 13 Oeste 0 -- -- 85
2019-10-04 00:00:00 21.8 7 Oeste 14 Oeste 0 -- -- 85
2019-10-03 23:00:00 21.9 6 Noroeste 12 Norte 0 -- -- 86
2019-10-03 22:00:00 22.2 4 Norte 12 Oeste 0 -- -- 84
2019-10-03 21:00:00 22.1 4 Noroeste 13 Oeste 0 -- -- 83
2019-10-03 20:00:00 22.4 4 Noroeste 9 Noroeste 0 -- -- 83
2019-10-03 19:00:00 22.7 4 Noroeste 12 Norte 0 -- -- 81
2019-10-03 18:00:00 23.3 3 Sur 15 Nordeste 0 -- -- 79
2019-10-03 17:00:00 24 7 Norte 12 Norte 0 -- -- 78
2019-10-03 16:00:00 24.2 6 Norte 15 Norte 0 -- -- 76
2019-10-03 15:00:00 24.6 6 Norte 12 Norte 0 -- -- 77
2019-10-03 14:00:00 24.2 7 Nordeste 14 Norte 0 -- -- 79
2019-10-03 13:00:00 24.2 7 Nordeste 12 Nordeste 0 -- -- 78
2019-10-03 12:00:00 24.7 10 Nordeste 16 Nordeste 0 -- -- 77
2019-10-03 11:00:00 24.1 8 Nordeste 13 Nordeste 0 -- -- 80
2019-10-03 10:00:00 22.9 7 Este 11 Este 0 -- -- 84
2019-10-03 09:00:00 21.6 5 Sudeste 10 Sudeste 0 -- -- 88
2019-10-03 08:00:00 19.4 6 Sudeste 9 Sudeste 0 -- -- 78
2019-10-03 07:00:00 19.4 6 Sudeste 7 Sudeste 0 -- -- 82
2019-10-03 06:00:00 20.5 5 Sudeste 14 Sudeste 0 -- -- 81
2019-10-03 05:00:00 22.1 9 Sudeste 17 Sudeste 0 -- -- 77
2019-10-03 04:00:00 21.8 9 Sudeste 16 Sudeste 0 -- -- 81
2019-10-03 03:00:00 21.2 8 Sudeste 14 Sudeste 0 -- -- 84
2019-10-03 02:00:00 21.4 7 Sudeste 16 Sudeste 0 -- -- 86
2019-10-03 01:00:00 22 7 Este 12 Este 0 -- -- 90
2019-10-03 00:00:00 22.4 5 Este 10 Nordeste 0 -- -- 91
2019-10-02 23:00:00 22.2 4 Nordeste 10 Nordeste 0 -- -- 93
2019-10-02 22:00:00 21.9 5 Este 9 Este 0 -- -- 92
2019-10-02 21:00:00 22.3 7 Este 14 Este 0 -- -- 90
2019-10-02 20:00:00 22.8 9 Este 17 Este 0 -- -- 88
2019-10-02 19:00:00 23.7 12 Este 16 Este 0 -- -- 85
2019-10-02 18:00:00 23.8 12 Este 16 Este 0 -- -- 86
2019-10-02 17:00:00 24.4 10 Nordeste 17 Este 0 -- -- 84
2019-10-02 16:00:00 24.6 10 Nordeste 17 Nordeste 0 -- -- 84
2019-10-02 15:00:00 24.8 13 Nordeste 22 Nordeste 0 -- -- 82
2019-10-02 14:00:00 25.8 15 Nordeste 24 Este 0 -- -- 76
2019-10-02 13:00:00 25.2 12 Este 20 Este 0 -- -- 78
2019-10-02 12:00:00 24.4 14 Este 20 Este 0 -- -- 81
2019-10-02 11:00:00 23.6 13 Este 20 Este 0 -- -- 83
2019-10-02 10:00:00 22.5 11 Este 16 Este 0 -- -- 87
2019-10-02 09:00:00 21.2 8 Sudeste 13 Sudeste 0 -- -- 93
2019-10-02 08:00:00 20.1 6 Sudeste 10 Sudeste 0 -- -- 94
2019-10-02 07:00:00 19.9 6 Sudeste 11 Sudeste 0 -- -- 93
2019-10-02 06:00:00 20.7 6 Nordeste 13 Nordeste 0 -- -- 93
2019-10-02 05:00:00 20.3 5 Este 8 Sudeste 0 -- -- 93
2019-10-02 04:00:00 20.8 4 Sudeste 6 Sudeste 0 -- -- 93
2019-10-02 03:00:00 21.6 3 Este 7 Sudeste 0 -- -- 92
2019-10-02 02:00:00 21.9 4 Este 8 Sudeste 0 -- -- 92
2019-10-02 01:00:00 22 4 Este 13 Este 0 -- -- 92
2019-10-02 00:00:00 21.8 9 Sudeste 17 Sudeste 0 -- -- 91
2019-10-01 23:00:00 21.9 10 Sudeste 18 Sudeste 0 -- -- 89
2019-10-01 22:00:00 22.1 8 Sudeste 13 Este 0 -- -- 92
2019-10-01 21:00:00 22.6 9 Este 16 Este 0 -- -- 87
2019-10-01 20:00:00 23.1 8 Este 17 Este 0 -- -- 83
2019-10-01 19:00:00 23.8 9 Este 21 Este 0 -- -- 80
2019-10-01 18:00:00 24.4 10 Este 16 Nordeste 0 -- -- 78
2019-10-01 17:00:00 24.5 11 Nordeste 22 Nordeste 0 -- -- 81
2019-10-01 16:00:00 24.5 9 Nordeste 19 Nordeste 0 -- -- 81
2019-10-01 15:00:00 24.9 7 Nordeste 18 Nordeste 0 -- -- 79
2019-10-01 14:00:00 25 8 Nordeste 15 Nordeste 0 -- -- 77
2019-10-01 13:00:00 24.6 6 Este 13 Nordeste 0 -- -- 80
2019-10-01 12:00:00 24.1 8 Nordeste 13 Este 0 -- -- 82
2019-10-01 11:00:00 23.3 6 Nordeste 11 Este 0 -- -- 86
2019-10-01 10:00:00 22.8 3 Este 7 Este 0 -- -- 88
2019-10-01 09:00:00 20.9 0 Calma 6 Sur 0 -- -- 96
2019-10-01 08:00:00 19.4 2 Sudeste 6 Sur 0 -- -- 95
2019-10-01 07:00:00 19.8 5 Sudeste 10 Sudeste 0 -- -- 94
2019-10-01 06:00:00 19.7 3 Sudeste 6 Sur 0 -- -- 95
2019-10-01 05:00:00 20 3 Este 8 Este 0 -- -- 94
2019-10-01 04:00:00 20.1 2 Este 6 Sudeste 0 -- -- 94
2019-10-01 03:00:00 19.5 0 Calma 6 Sudoeste 0 -- -- 92
2019-10-01 02:00:00 19.4 3 Noroeste 9 Sudoeste 0 -- -- 83
2019-10-01 01:00:00 19.9 2 Sur 5 Sudeste 0 -- -- 91
2019-10-01 00:00:00 21.2 3 Sudeste 10 Norte 0 -- -- 89
2019-09-30 23:00:00 20.6 2 Este 6 Sur 0 -- -- 88
2019-09-30 22:00:00 22.1 0 Calma 6 Noroeste 0 -- -- 86
2019-09-30 21:00:00 22.4 3 Noroeste 10 Noroeste 0 -- -- 86
2019-09-30 20:00:00 22.6 6 Noroeste 17 Oeste 0 -- -- 86
2019-09-30 19:00:00 22.8 8 Noroeste 17 Noroeste 0 -- -- 85
2019-09-30 18:00:00 23.3 10 Noroeste 16 Noroeste 0 -- -- 84
2019-09-30 17:00:00 23.6 10 Noroeste 17 Noroeste 0 -- -- 81
2019-09-30 16:00:00 23.9 10 Noroeste 15 Noroeste 0 -- -- 80
2019-09-30 15:00:00 25.1 9 Norte 15 Norte 0 -- -- 77
2019-09-30 14:00:00 24.9 8 Norte 14 Nordeste 0 -- -- 76
2019-09-30 13:00:00 24.8 6 Norte 14 Norte 0 -- -- 77
2019-09-30 12:00:00 24.3 7 Norte 14 Norte 0 -- -- 79
2019-09-30 11:00:00 23.6 6 Norte 10 Norte 0 -- -- 80
2019-09-30 10:00:00 22.9 3 Norte 10 Norte 0 -- -- 83
2019-09-30 09:00:00 21.5 5 Oeste 9 Oeste 0 -- -- 88
2019-09-30 08:00:00 21 6 Oeste 10 Sudoeste 0 -- -- 89
2019-09-30 07:00:00 21 6 Oeste 12 Noroeste 0 -- -- 89
2019-09-30 06:00:00 20.8 6 Oeste 12 Oeste 0 -- -- 90
2019-09-30 05:00:00 20 5 Sudoeste 10 Norte 0 -- -- 90
2019-09-30 04:00:00 20.2 0 Calma 8 Este 0 -- -- 88
2019-09-30 03:00:00 21.4 3 Norte 8 Nordeste 0 -- -- 85
2019-09-30 02:00:00 21.8 3 Este 9 Este 0 -- -- 85
2019-09-30 01:00:00 21.9 3 Nordeste 9 Nordeste 0 -- -- 85
2019-09-30 00:00:00 22 3 Norte 12 Norte 0 -- -- 85
2019-09-29 23:00:00 22.1 4 Norte 10 Norte 0 -- -- 85
2019-09-29 22:00:00 22.2 4 Norte 11 Noroeste 0 -- -- 85
2019-09-29 21:00:00 22.2 5 Noroeste 12 Noroeste 0 -- -- 85
2019-09-29 20:00:00 22.5 4 Noroeste 13 Noroeste 0 -- -- 85
2019-09-29 19:00:00 23.1 5 Noroeste 13 Norte 0 -- -- 83
2019-09-29 18:00:00 23.5 6 Norte 11 Nordeste 0 -- -- 81
2019-09-29 17:00:00 24 7 Norte 12 Nordeste 0 -- -- 79
2019-09-29 16:00:00 24.1 8 Nordeste 13 Nordeste 0 -- -- 77
2019-09-29 15:00:00 24.5 8 Nordeste 15 Nordeste 0 -- -- 75
2019-09-29 14:00:00 24.6 10 Nordeste 15 Nordeste 0 -- -- 74
2019-09-29 13:00:00 24.3 9 Nordeste 15 Nordeste 0 -- -- 74
2019-09-29 12:00:00 23.6 9 Nordeste 14 Nordeste 0 -- -- 75
2019-09-29 11:00:00 22.9 5 Nordeste 14 Norte 0 -- -- 79
2019-09-29 10:00:00 22.3 6 Nordeste 12 Nordeste 0 -- -- 79
2019-09-29 09:00:00 21.7 5 Este 13 Nordeste 0 -- -- 80
2019-09-29 08:00:00 21.6 5 Nordeste 11 Nordeste 0 -- -- 81
2019-09-29 07:00:00 21.5 3 Nordeste 12 Nordeste 0 -- -- 81
2019-09-29 06:00:00 21.5 4 Nordeste 14 Norte 0 -- -- 83
2019-09-29 05:00:00 21.5 4 Norte 12 Norte 0 -- -- 84
2019-09-29 04:00:00 21.5 4 Norte 10 Norte 0 -- -- 83
2019-09-29 03:00:00 21.5 4 Norte 10 Norte 0 -- -- 84
2019-09-29 02:00:00 21.6 4 Nordeste 10 Nordeste 0 -- -- 84
2019-09-29 01:00:00 21.6 3 Norte 13 Norte 0 -- -- 85
2019-09-29 00:00:00 21.6 3 Norte 9 Norte 0 -- -- 85
2019-09-28 23:00:00 21.5 4 Norte 8 Norte 0 -- -- 85
2019-09-28 22:00:00 21.5 2 Norte 8 Norte 0 -- -- 82
2019-09-28 21:00:00 21.6 4 Norte 10 Norte 0 -- -- 81
2019-09-28 20:00:00 22.2 4 Norte 12 Norte 0 -- -- 80
2019-09-28 19:00:00 22.9 6 Norte 11 Norte 0 -- -- 78
2019-09-28 18:00:00 23.3 6 Norte 11 Nordeste 0 -- -- 77
2019-09-28 17:00:00 24.2 7 Norte 15 Nordeste 0 -- -- 71
2019-09-28 16:00:00 24.8 9 Nordeste 17 Nordeste 0 -- -- 70
2019-09-28 15:00:00 25.1 9 Nordeste 15 Nordeste 0 -- -- 72
2019-09-28 14:00:00 24.6 8 Nordeste 14 Nordeste 0 -- -- 72
2019-09-28 13:00:00 23.9 10 Nordeste 18 Nordeste 0 -- -- 73
2019-09-28 12:00:00 23.5 8 Nordeste 13 Nordeste 0 -- -- 77
2019-09-28 11:00:00 23.6 9 Nordeste 15 Este 0 -- -- 77
2019-09-28 10:00:00 22.3 6 Este 10 Nordeste 0 -- -- 82
2019-09-28 09:00:00 21.6 4 Nordeste 9 Norte 0 -- -- 83
2019-09-28 08:00:00 20.8 5 Nordeste 15 Norte 0 -- -- 86
2019-09-28 07:00:00 20.1 0 Calma 4 Este 0 -- -- 89
2019-09-28 06:00:00 20.2 2 Sudeste 9 Nordeste 0 -- -- 88
2019-09-28 05:00:00 20.8 3 Nordeste 11 Nordeste 0 -- -- 85
2019-09-28 04:00:00 20.9 3 Nordeste 9 Nordeste 0 -- -- 86
2019-09-28 03:00:00 21.1 5 Nordeste 11 Nordeste 0 -- -- 87
2019-09-28 02:00:00 21 5 Norte 12 Nordeste 0 -- -- 87
2019-09-28 01:00:00 21.1 2 Nordeste 6 Nordeste 0 -- -- 87
2019-09-28 00:00:00 21.1 0 Calma 7 Norte 0 -- -- 87
2019-09-27 23:00:00 21.3 4 Nordeste 10 Norte 0 -- -- 86
2019-09-27 22:00:00 21.4 4 Norte 9 Norte 0 -- -- 85
2019-09-27 21:00:00 21.6 4 Norte 9 Norte 0 -- -- 84
2019-09-27 20:00:00 22.2 6 Norte 11 Norte 0 -- -- 82
2019-09-27 19:00:00 22.9 6 Norte 12 Norte 0 -- -- 78
2019-09-27 18:00:00 23.9 3 Norte 16 Norte 0 -- -- 73
2019-09-27 17:00:00 24.5 8 Norte 13 Norte 0 -- -- 71
2019-09-27 16:00:00 24.8 8 Norte 13 Noroeste 0 -- -- 71
2019-09-27 15:00:00 24.7 8 Norte 13 Norte 0 -- -- 71
2019-09-27 14:00:00 24.7 8 Norte 15 Norte 0 -- -- 71
2019-09-27 13:00:00 24.6 6 Norte 12 Norte 0 -- -- 72
2019-09-27 12:00:00 24.3 7 Nordeste 11 Norte 0 -- -- 73
2019-09-27 11:00:00 23.8 6 Nordeste 10 Nordeste 0 -- -- 72
2019-09-27 10:00:00 22.9 3 Este 10 Este 0 -- -- 76
2019-09-27 09:00:00 22 3 Norte 11 Nordeste 0 -- -- 81
2019-09-27 08:00:00 21.8 4 Nordeste 10 Norte 0 -- -- 82
2019-09-27 07:00:00 21.8 4 Nordeste 11 Nordeste 0 -- -- 83
2019-09-27 06:00:00 21.9 4 Norte 8 Norte 0 -- -- 85
2019-09-27 05:00:00 21.7 2 Sudoeste 6 Oeste 0 -- -- 82
2019-09-27 04:00:00 21.8 4 Norte 9 Norte 0 -- -- 81
2019-09-27 03:00:00 21.9 3 Norte 9 Nordeste 0 -- -- 81
2019-09-27 02:00:00 22 5 Norte 12 Norte 0 -- -- 82
2019-09-27 01:00:00 22.1 4 Nordeste 11 Norte 0 -- -- 80
2019-09-27 00:00:00 22.2 3 Norte 7 Nordeste 0 -- -- 79
2019-09-26 23:00:00 22.2 2 Norte 14 Norte 0 -- -- 78
2019-09-26 22:00:00 22.3 5 Norte 12 Norte 0 -- -- 80
2019-09-26 21:00:00 22.3 3 Oeste 8 Norte 0 -- -- 75
2019-09-26 20:00:00 22.5 5 Norte 12 Norte 0 -- -- 77
2019-09-26 19:00:00 23.2 4 Nordeste 9 Norte 0 -- -- 75
2019-09-26 18:00:00 23.9 5 Nordeste 18 Norte 0 -- -- 71
2019-09-26 17:00:00 23.9 10 Nordeste 17 Nordeste 0 -- -- 73
2019-09-26 16:00:00 25.1 7 Norte 12 Nordeste 0 -- -- 71
2019-09-26 15:00:00 24.8 6 Nordeste 17 Nordeste 0 -- -- 68
2019-09-26 14:00:00 24.9 9 Nordeste 21 Nordeste 0 -- -- 71
2019-09-26 13:00:00 24.2 6 Nordeste 15 Nordeste 0 -- -- 77
2019-09-26 12:00:00 23.9 7 Nordeste 12 Este 0 -- -- 78
2019-09-26 11:00:00 23.6 4 Nordeste 10 Nordeste 0 -- -- 75
2019-09-26 10:00:00 24 5 Nordeste 16 Nordeste 0 -- -- 74
2019-09-26 09:00:00 22.2 5 Nordeste 9 Nordeste 0 -- -- 85
2019-09-26 08:00:00 21.8 4 Nordeste 13 Nordeste 0 -- -- 84
2019-09-26 07:00:00 21.7 3 Nordeste 10 Norte 0 -- -- 85
2019-09-26 06:00:00 21.8 3 Nordeste 10 Nordeste 0 -- -- 84
2019-09-26 05:00:00 21.9 3 Este 6 Nordeste 0 -- -- 85
2019-09-26 04:00:00 21.9 3 Este 6 Este 0 -- -- 84
2019-09-26 03:00:00 21.9 2 Sudeste 5 Este 0 -- -- 85
2019-09-26 02:00:00 21.9 3 Nordeste 8 Nordeste 0 -- -- 85
2019-09-26 01:00:00 21.6 3 Este 7 Sudeste 0 -- -- 84
2019-09-26 00:00:00 21.9 2 Sur 11 Nordeste 0 -- -- 85
2019-09-25 23:00:00 22 4 Sudeste 8 Este 0 -- -- 85
2019-09-25 22:00:00 22.2 3 Nordeste 10 Norte 0 -- -- 85
2019-09-25 21:00:00 22.2 2 Norte 10 Norte 0 -- -- 84
2019-09-25 20:00:00 22.4 2 Este 9 Nordeste 0 -- -- 82
2019-09-25 19:00:00 23.4 4 Norte 10 Nordeste 0 -- -- 78
2019-09-25 18:00:00 23.9 4 Norte 12 Noroeste 0 -- -- 77
2019-09-25 17:00:00 24.3 7 Norte 15 Norte 0 -- -- 74
2019-09-25 16:00:00 24.5 6 Norte 12 Norte 0 -- -- 73
2019-09-25 15:00:00 24.9 7 Norte 15 Norte 0 -- -- 71
2019-09-25 14:00:00 24.4 8 Norte 14 Norte 0 -- -- 74
2019-09-25 13:00:00 24.7 8 Norte 14 Norte 0 -- -- 71
2019-09-25 12:00:00 24.4 7 Norte 11 Nordeste 0 -- -- 72
2019-09-25 11:00:00 24 5 Norte 10 Norte 0 -- -- 74
2019-09-25 10:00:00 23.4 7 Norte 12 Norte 0 -- -- 74
2019-09-25 09:00:00 22.4 6 Norte 12 Norte 0 -- -- 78
2019-09-25 08:00:00 20.8 3 Oeste 10 Norte 0 -- -- 83
2019-09-25 07:00:00 21.1 4 Noroeste 14 Norte 0 -- -- 81
2019-09-25 06:00:00 21.3 9 Norte 15 Norte 0 -- -- 80
2019-09-25 05:00:00 21.2 5 Noroeste 10 Norte 0 -- -- 80
2019-09-25 04:00:00 21.2 4 Noroeste 12 Norte 0 -- -- 80
2019-09-25 03:00:00 21.6 4 Nordeste 10 Nordeste 0 -- -- 80
2019-09-25 02:00:00 21.7 3 Norte 14 Norte 0 -- -- 77
2019-09-25 01:00:00 21.8 4 Nordeste 14 Nordeste 0 -- -- 76
2019-09-25 00:00:00 21.8 8 Norte 16 Norte 0 -- -- 75
2019-09-24 23:00:00 21.9 4 Norte 13 Norte 0 -- -- 73
2019-09-24 22:00:00 21.9 5 Norte 17 Norte 0 -- -- 73
2019-09-24 21:00:00 22 5 Norte 14 Norte 0 -- -- 74
2019-09-24 20:00:00 22.2 9 Norte 17 Norte 0 -- -- 73
2019-09-24 19:00:00 22.9 6 Norte 18 Norte 0 -- -- 71
2019-09-24 18:00:00 23.2 8 Norte 19 Noroeste 0 -- -- 71
2019-09-24 17:00:00 23.4 5 Norte 15 Norte 0 -- -- 71
2019-09-24 16:00:00 24.2 10 Norte 19 Norte 0 -- -- 69
2019-09-24 15:00:00 24.6 11 Norte 21 Nordeste 0 -- -- 69
2019-09-24 14:00:00 25.1 10 Norte 19 Norte 0 -- -- 67
2019-09-24 13:00:00 24.8 11 Norte 20 Norte 0 -- -- 68
2019-09-24 12:00:00 24 13 Norte 21 Norte 0 -- -- 70
2019-09-24 11:00:00 23.2 8 Norte 14 Norte 0 -- -- 74
2019-09-24 10:00:00 22.8 8 Norte 21 Norte 0 -- -- 76
2019-09-24 09:00:00 21.7 9 Norte 18 Nordeste 0 -- -- 81
2019-09-24 08:00:00 21.3 3 Norte 18 Norte 0 -- -- 83
2019-09-24 07:00:00 21.5 9 Norte 21 Norte 0 -- -- 80
2019-09-24 06:00:00 21.6 8 Nordeste 19 Nordeste 0 -- -- 83
2019-09-24 05:00:00 21.5 10 Nordeste 19 Nordeste 0 -- -- 85
2019-09-24 04:00:00 20.5 0 Calma 9 Nordeste 0 -- -- 86
2019-09-24 03:00:00 21.2 4 Nordeste 11 Nordeste 0 -- -- 84
2019-09-24 02:00:00 21.3 6 Nordeste 11 Este 0 -- -- 84
2019-09-24 01:00:00 21.3 4 Nordeste 9 Nordeste 0 -- -- 84
2019-09-24 00:00:00 21.4 0 Calma 8 Nordeste 0 -- -- 84
2019-09-23 23:00:00 21.4 3 Nordeste 6 Nordeste 0 -- -- 83
2019-09-23 22:00:00 21.8 4 Norte 10 Nordeste 0 -- -- 81
2019-09-23 21:00:00 22.1 5 Norte 12 Nordeste 0 -- -- 81
2019-09-23 20:00:00 22.5 4 Norte 8 Norte 0 -- -- 80
2019-09-23 19:00:00 23.6 6 Nordeste 12 Nordeste 0 -- -- 74
2019-09-23 18:00:00 24.4 8 Nordeste 14 Nordeste 0 -- -- 71
2019-09-23 17:00:00 24.5 8 Norte 15 Norte 0 -- -- 71
2019-09-23 16:00:00 24.9 7 Norte 17 Norte 0 -- -- 69
2019-09-23 15:00:00 25 8 Norte 14 Nordeste 0 -- -- 68
2019-09-23 14:00:00 23.5 8 Nordeste 14 Nordeste 0 -- -- 75
2019-09-23 13:00:00 24.5 8 Nordeste 14 Norte 0 -- -- 70
2019-09-23 12:00:00 24.7 9 Nordeste 17 Nordeste 0 -- -- 70
2019-09-23 11:00:00 24.1 8 Norte 17 Norte 0 -- -- 72
2019-09-23 10:00:00 23 10 Norte 22 Norte 0 -- -- 77
2019-09-23 09:00:00 21.4 4 Norte 16 Norte 0 -- -- 86
2019-09-23 08:00:00 21.2 6 Norte 15 Norte 0 -- -- 83
2019-09-23 07:00:00 20.8 3 Nordeste 16 Norte 0 -- -- 86
2019-09-23 06:00:00 21.1 10 Norte 17 Norte 0 -- -- 87
2019-09-23 05:00:00 21.5 8 Norte 14 Norte 0 -- -- 89
2019-09-23 04:00:00 21.6 5 Norte 12 Noroeste 0 -- -- 90
2019-09-23 03:00:00 21.8 5 Norte 11 Norte 0 -- -- 91
2019-09-23 02:00:00 22 4 Norte 9 Nordeste 0 -- -- 92
2019-09-23 01:00:00 22.1 3 Este 8 Este 0 -- -- 92
2019-09-23 00:00:00 21.7 4 Sudeste 11 Nordeste 0.2 -- -- 93
2019-09-22 23:00:00 21.7 4 Nordeste 21 Norte 0.2 -- -- 94
2019-09-22 22:00:00 22.9 5 Nordeste 16 Norte 0 -- -- 90
2019-09-22 21:00:00 22.8 8 Nordeste 22 Nordeste 0 -- -- 90
2019-09-22 20:00:00 22.8 6 Nordeste 18 Norte 0 -- -- 92
2019-09-22 19:00:00 23.7 4 Norte 12 Norte 0 -- -- 89
2019-09-22 18:00:00 24.3 5 Noroeste 12 Noroeste 0 -- -- 84
2019-09-22 17:00:00 26 6 Norte 11 Norte 0 -- -- 78
2019-09-22 16:00:00 25.5 0 Calma 4 Sudoeste 0 -- -- 77
2019-09-22 15:00:00 25.5 4 Norte 14 Noroeste 0 -- -- 77
2019-09-22 14:00:00 26 6 Noroeste 14 Norte 0 -- -- 73
2019-09-22 13:00:00 26 8 Norte 14 Norte 0 -- -- 69
2019-09-22 12:00:00 25.1 8 Norte 14 Noroeste 0 -- -- 74
2019-09-22 11:00:00 24.8 7 Norte 13 Noroeste 0 -- -- 77
2019-09-22 10:00:00 24 6 Norte 9 Norte 0 -- -- 75
2019-09-22 09:00:00 22.6 3 Sudoeste 8 Sudoeste 0 -- -- 81
2019-09-22 08:00:00 20 5 Sudoeste 9 Sudoeste 0 -- -- 89
2019-09-22 07:00:00 20.1 6 Sudoeste 9 Sudoeste 0 -- -- 89
2019-09-22 06:00:00 20.4 6 Sudoeste 10 Sudoeste 0 -- -- 88
2019-09-22 05:00:00 20.1 5 Oeste 8 Sudoeste 0 -- -- 87
2019-09-22 04:00:00 20.5 5 Oeste 11 Sudoeste 0 -- -- 85
2019-09-22 03:00:00 20.6 8 Sudoeste 14 Sudoeste 0 -- -- 83
2019-09-22 02:00:00 20.8 7 Sudoeste 10 Sudoeste 0 -- -- 85
2019-09-22 01:00:00 21.5 6 Sudoeste 9 Sudoeste 0 -- -- 86
2019-09-22 00:00:00 22.1 5 Oeste 12 Noroeste 0 -- -- 86
2019-09-21 23:00:00 22.4 6 Noroeste 10 Noroeste 0 -- -- 86
2019-09-21 22:00:00 22.4 5 Oeste 14 Oeste 0 -- -- 85
2019-09-21 21:00:00 22.3 9 Oeste 14 Oeste 0 -- -- 83
2019-09-21 20:00:00 22.4 6 Oeste 11 Noroeste 0 -- -- 83
2019-09-21 19:00:00 23.6 5 Noroeste 13 Noroeste 0 -- -- 80
2019-09-21 18:00:00 24 8 Noroeste 15 Norte 0 -- -- 77
2019-09-21 17:00:00 25 9 Noroeste 17 Norte 0 -- -- 75
2019-09-21 16:00:00 25.5 8 Norte 15 Norte 0 -- -- 73
2019-09-21 15:00:00 25.1 7 Norte 16 Norte 0 -- -- 74
2019-09-21 14:00:00 24.8 9 Noroeste 17 Norte 0 -- -- 75
2019-09-21 13:00:00 24.5 10 Norte 19 Norte 0 -- -- 76
2019-09-21 12:00:00 24.4 8 Norte 14 Norte 0 -- -- 75
2019-09-21 11:00:00 24.2 7 Noroeste 14 Norte 0 -- -- 75
2019-09-21 10:00:00 23.1 6 Noroeste 12 Noroeste 0 -- -- 78
2019-09-21 09:00:00 21.4 5 Oeste 9 Oeste 0 -- -- 85
2019-09-21 08:00:00 18.7 5 Oeste 9 Oeste 0 -- -- 88
2019-09-21 07:00:00 19 3 Sudoeste 6 Sudoeste 0 -- -- 90
2019-09-21 06:00:00 20.1 3 Oeste 6 Oeste 0 -- -- 87
2019-09-21 05:00:00 21.4 0 Calma 5 Sur 0 -- -- 82
2019-09-21 04:00:00 21.3 3 Sudeste 5 Sudeste 0 -- -- 82
2019-09-21 03:00:00 21.3 3 Sudeste 6 Sudeste 0 -- -- 82
2019-09-21 02:00:00 21.1 4 Sudeste 8 Este 0 -- -- 85
2019-09-21 01:00:00 21.3 4 Sudeste 9 Sudeste 0 -- -- 84
2019-09-21 00:00:00 21.3 5 Sur 8 Sudeste 0 -- -- 84
2019-09-20 23:00:00 20.7 2 Sudeste 5 Sudoeste 0 -- -- 85
2019-09-20 22:00:00 21.6 0 Calma 6 Norte 0 -- -- 84
2019-09-20 21:00:00 22.2 4 Norte 10 Norte 0 -- -- 83
2019-09-20 20:00:00 22.3 3 Norte 8 Norte 0 -- -- 81
2019-09-20 19:00:00 23.2 4 Noroeste 12 Noroeste 0 -- -- 78
2019-09-20 18:00:00 24.3 6 Noroeste 18 Norte 0 -- -- 74
2019-09-20 17:00:00 24.8 7 Noroeste 14 Norte 0 -- -- 71
2019-09-20 16:00:00 24.7 7 Norte 14 Nordeste 0 -- -- 71
2019-09-20 15:00:00 24.5 7 Norte 13 Nordeste 0 -- -- 72
2019-09-20 14:00:00 24.4 7 Norte 13 Norte 0 -- -- 73
2019-09-20 13:00:00 24.5 8 Norte 14 Nordeste 0 -- -- 71
2019-09-20 12:00:00 23.9 6 Norte 15 Norte 0 -- -- 76
2019-09-20 11:00:00 24 6 Nordeste 13 Norte 0 -- -- 75
2019-09-20 10:00:00 22.5 4 Nordeste 9 Norte 0 -- -- 80
2019-09-20 09:00:00 22 6 Norte 10 Norte 0 -- -- 83
2019-09-20 08:00:00 20.5 0 Calma 9 Noroeste 0 -- -- 86
2019-09-20 07:00:00 21.2 3 Noroeste 13 Norte 0 -- -- 85
2019-09-20 06:00:00 21.3 4 Noroeste 9 Noroeste 0 -- -- 82
2019-09-20 05:00:00 21.1 4 Norte 10 Norte 0 -- -- 86
2019-09-20 04:00:00 20.9 4 Oeste 8 Noroeste 0 -- -- 87
2019-09-20 03:00:00 20.9 0 Calma 12 Noroeste 0 -- -- 85
2019-09-20 02:00:00 21.1 5 Noroeste 8 Oeste 0 -- -- 88
2019-09-20 01:00:00 20.8 3 Oeste 9 Norte 0 -- -- 86
2019-09-20 00:00:00 21.2 5 Noroeste 9 Noroeste 0 -- -- 86
2019-09-19 23:00:00 21.3 3 Noroeste 9 Norte 0 -- -- 86
2019-09-19 22:00:00 21.5 3 Norte 13 Norte 0 -- -- 85
2019-09-19 21:00:00 21.9 5 Norte 13 Norte 0 -- -- 85
2019-09-19 20:00:00 22.5 6 Norte 12 Nordeste 0 -- -- 83
2019-09-19 19:00:00 23.8 6 Norte 15 Norte 0 -- -- 78
2019-09-19 18:00:00 23.8 5 Norte 15 Norte 0 -- -- 78
2019-09-19 17:00:00 24.3 6 Norte 13 Norte 0 -- -- 75
2019-09-19 16:00:00 24.7 6 Norte 14 Norte 0 -- -- 74
2019-09-19 15:00:00 24.7 8 Norte 15 Norte 0 -- -- 72
2019-09-19 14:00:00 24.9 10 Norte 14 Norte 0 -- -- 72
2019-09-19 13:00:00 24.7 8 Norte 14 Norte 0 -- -- 72
2019-09-19 12:00:00 23.7 5 Nordeste 12 Nordeste 0 -- -- 73
2019-09-19 11:00:00 23.4 5 Nordeste 13 Nordeste 0 -- -- 75
2019-09-19 10:00:00 23.4 7 Nordeste 15 Nordeste 0 -- -- 76
2019-09-19 09:00:00 21.9 9 Nordeste 15 Norte 0 -- -- 83
2019-09-19 08:00:00 21 2 Este 5 Nordeste 0 -- -- 86
2019-09-19 07:00:00 20.7 2 Sudeste 8 Nordeste 0 -- -- 84
2019-09-19 06:00:00 21.3 3 Nordeste 15 Norte 0 -- -- 82
2019-09-19 05:00:00 21.3 5 Nordeste 12 Nordeste 0 -- -- 83
2019-09-19 04:00:00 21.2 6 Nordeste 12 Nordeste 0 -- -- 84
2019-09-19 03:00:00 21.4 6 Nordeste 15 Nordeste 0 -- -- 84
2019-09-19 02:00:00 21.4 5 Nordeste 10 Nordeste 0 -- -- 84
2019-09-19 01:00:00 21.5 5 Nordeste 13 Nordeste 0 -- -- 85
2019-09-19 00:00:00 21.9 6 Nordeste 12 Nordeste 0 -- -- 84
2019-09-18 23:00:00 22 6 Nordeste 12 Nordeste 0 -- -- 83
2019-09-18 22:00:00 22 5 Nordeste 13 Nordeste 0 -- -- 82
2019-09-18 21:00:00 22.1 5 Nordeste 13 Nordeste 0 -- -- 82
2019-09-18 20:00:00 22.5 6 Nordeste 15 Este 0 -- -- 80
2019-09-18 19:00:00 23.3 9 Nordeste 15 Nordeste 0 -- -- 76
2019-09-18 18:00:00 24.4 8 Nordeste 17 Nordeste 0 -- -- 72
2019-09-18 17:00:00 25 11 Nordeste 18 Nordeste 0 -- -- 70
2019-09-18 16:00:00 25.4 10 Nordeste 18 Nordeste 0 -- -- 69
2019-09-18 15:00:00 25.2 9 Nordeste 16 Este 0 -- -- 68
2019-09-18 14:00:00 -- -- -- -- -- -- -- -- --
2019-09-18 13:00:00 24.6 10 Nordeste 17 Nordeste 0 -- -- 68
2019-09-18 12:00:00 23.7 9 Nordeste 19 Norte 0 -- -- 72
2019-09-18 11:00:00 23 8 Este 15 Este 0 -- -- 74
2019-09-18 10:00:00 22.7 8 Nordeste 18 Nordeste 0 -- -- 71
2019-09-18 09:00:00 21.7 8 Este 15 Este 0 -- -- 78
2019-09-18 08:00:00 21.4 8 Este 15 Nordeste 0 -- -- 78
2019-09-18 07:00:00 21.2 8 Este 15 Este 0 -- -- 81
2019-09-18 06:00:00 21.2 8 Nordeste 15 Nordeste 0 -- -- 81
2019-09-18 05:00:00 21.3 4 Nordeste 9 Este 0 -- -- 84
2019-09-18 04:00:00 21.3 4 Norte 12 Norte 0 -- -- 82
2019-09-18 03:00:00 21.5 3 Nordeste 10 Nordeste 0 -- -- 84
2019-09-18 02:00:00 21.5 4 Nordeste 14 Nordeste 0 -- -- 83
2019-09-18 01:00:00 21.7 6 Nordeste 13 Nordeste 0 -- -- 86
2019-09-18 00:00:00 21.7 6 Nordeste 14 Nordeste 0 -- -- 85
2019-09-17 23:00:00 21.7 6 Nordeste 12 Nordeste 0 -- -- 85
2019-09-17 22:00:00 21.8 5 Nordeste 12 Nordeste 0 -- -- 84
2019-09-17 21:00:00 21.9 5 Nordeste 9 Nordeste 0 -- -- 84
2019-09-17 20:00:00 22.1 4 Nordeste 12 Nordeste 0 -- -- 82